sensor_id;sensor_type;location;lat;lon;timestamp;temperature;humidity
32107;DHT22;18622;51.998;10.440;2023-07-13T03:34:48;16.00;99.90
32107;DHT22;18622;51.998;10.440;2023-07-13T03:37:16;16.00;99.90
32107;DHT22;18622;51.998;10.440;2023-07-13T03:39:43;16.00;99.90
32107;DHT22;18622;51.998;10.440;2023-07-13T03:42:11;16.00;99.90
32107;DHT22;18622;51.998;10.440;2023-07-13T03:44:40;16.00;99.90
32107;DHT22;18622;51.998;10.440;2023-07-13T03:47:08;16.00;99.90
32107;DHT22;18622;51.998;10.440;2023-07-13T03:49:36;16.00;99.90
32107;DHT22;18622;51.998;10.440;2023-07-13T03:52:04;16.00;99.90
32107;DHT22;18622;51.998;10.440;2023-07-13T03:54:32;16.10;99.90
32107;DHT22;18622;51.998;10.440;2023-07-13T03:57:00;16.10;99.90
32107;DHT22;18622;51.998;10.440;2023-07-13T03:59:27;16.10;99.90
32107;DHT22;18622;51.998;10.440;2023-07-13T04:01:55;16.20;99.90
32107;DHT22;18622;51.998;10.440;2023-07-13T04:04:23;16.30;99.90
32107;DHT22;18622;51.998;10.440;2023-07-13T04:06:51;16.40;99.90
32107;DHT22;18622;51.998;10.440;2023-07-13T04:09:19;16.50;99.90
32107;DHT22;18622;51.998;10.440;2023-07-13T04:11:48;16.60;99.70
32107;DHT22;18622;51.998;10.440;2023-07-13T04:14:16;16.70;99.60
32107;DHT22;18622;51.998;10.440;2023-07-13T04:16:43;16.80;99.40
32107;DHT22;18622;51.998;10.440;2023-07-13T04:19:13;16.90;99.20
32107;DHT22;18622;51.998;10.440;2023-07-13T04:21:41;16.90;99.00
32107;DHT22;18622;51.998;10.440;2023-07-13T04:24:09;17.00;98.90
32107;DHT22;18622;51.998;10.440;2023-07-13T04:26:37;17.10;98.80
32107;DHT22;18622;51.998;10.440;2023-07-13T04:29:05;17.20;98.70
32107;DHT22;18622;51.998;10.440;2023-07-13T04:31:33;17.30;98.60
32107;DHT22;18622;51.998;10.440;2023-07-13T04:34:01;17.40;98.50
32107;DHT22;18622;51.998;10.440;2023-07-13T04:36:29;17.50;98.30
32107;DHT22;18622;51.998;10.440;2023-07-13T04:38:57;17.60;98.00
32107;DHT22;18622;51.998;10.440;2023-07-13T04:41:25;17.80;97.70
32107;DHT22;18622;51.998;10.440;2023-07-13T04:43:53;17.80;97.40
32107;DHT22;18622;51.998;10.440;2023-07-13T04:46:20;17.90;97.20
32107;DHT22;18622;51.998;10.440;2023-07-13T04:48:49;18.10;97.00
32107;DHT22;18622;51.998;10.440;2023-07-13T04:51:19;18.20;96.70
32107;DHT22;18622;51.998;10.440;2023-07-13T04:53:47;18.30;96.60
32107;DHT22;18622;51.998;10.440;2023-07-13T04:56:14;18.30;96.40
32107;DHT22;18622;51.998;10.440;2023-07-13T04:58:42;18.40;96.30
32107;DHT22;18622;51.998;10.440;2023-07-13T05:01:10;18.40;96.10
32107;DHT22;18622;51.998;10.440;2023-07-13T05:03:39;18.50;96.10
32107;DHT22;18622;51.998;10.440;2023-07-13T05:06:08;18.50;96.00
32107;DHT22;18622;51.998;10.440;2023-07-13T05:08:38;18.60;96.00
32107;DHT22;18622;51.998;10.440;2023-07-13T05:11:06;18.70;95.90
32107;DHT22;18622;51.998;10.440;2023-07-13T05:13:34;18.70;95.70
32107;DHT22;18622;51.998;10.440;2023-07-13T05:16:04;18.80;95.50
32107;DHT22;18622;51.998;10.440;2023-07-13T05:18:32;18.80;95.40
32107;DHT22;18622;51.998;10.440;2023-07-13T05:21:08;18.90;95.40
32107;DHT22;18622;51.998;10.440;2023-07-13T05:23:33;18.90;95.20
32107;DHT22;18622;51.998;10.440;2023-07-13T05:26:02;19.00;95.10
32107;DHT22;18622;51.998;10.440;2023-07-13T05:28:31;19.10;95.00
32107;DHT22;18622;51.998;10.440;2023-07-13T05:30:59;19.10;95.00
32107;DHT22;18622;51.998;10.440;2023-07-13T05:33:27;19.20;94.80
32107;DHT22;18622;51.998;10.440;2023-07-13T05:35:54;19.40;94.80
32107;DHT22;18622;51.998;10.440;2023-07-13T05:38:23;19.50;94.60
32107;DHT22;18622;51.998;10.440;2023-07-13T05:40:52;19.60;94.00
32107;DHT22;18622;51.998;10.440;2023-07-13T05:43:20;19.70;94.10
32107;DHT22;18622;51.998;10.440;2023-07-13T05:45:47;19.80;93.90
32107;DHT22;18622;51.998;10.440;2023-07-13T05:48:16;19.90;93.70
32107;DHT22;18622;51.998;10.440;2023-07-13T05:50:43;20.00;93.30
32107;DHT22;18622;51.998;10.440;2023-07-13T05:53:12;20.20;92.90
32107;DHT22;18622;51.998;10.440;2023-07-13T05:55:43;20.40;93.00
32107;DHT22;18622;51.998;10.440;2023-07-13T05:58:13;20.60;92.20
32107;DHT22;18622;51.998;10.440;2023-07-13T06:00:41;20.80;92.10
32107;DHT22;18622;51.998;10.440;2023-07-13T06:03:09;21.00;91.30
32107;DHT22;18622;51.998;10.440;2023-07-13T06:05:37;21.20;91.50
32107;DHT22;18622;51.998;10.440;2023-07-13T06:08:06;21.30;91.30
32107;DHT22;18622;51.998;10.440;2023-07-13T06:10:36;21.50;90.60
32107;DHT22;18622;51.998;10.440;2023-07-13T06:13:04;21.60;90.20
32107;DHT22;18622;51.998;10.440;2023-07-13T06:15:32;21.80;90.00
32107;DHT22;18622;51.998;10.440;2023-07-13T06:17:59;21.90;89.40
32107;DHT22;18622;51.998;10.440;2023-07-13T06:20:29;22.00;89.30
32107;DHT22;18622;51.998;10.440;2023-07-13T06:22:57;22.10;88.50
32107;DHT22;18622;51.998;10.440;2023-07-13T06:25:25;22.00;88.10
32107;DHT22;18622;51.998;10.440;2023-07-13T06:27:53;21.80;88.20
32107;DHT22;18622;51.998;10.440;2023-07-13T06:30:21;21.80;88.50
32107;DHT22;18622;51.998;10.440;2023-07-13T06:32:49;21.70;88.90
32107;DHT22;18622;51.998;10.440;2023-07-13T06:35:17;21.60;88.90
32107;DHT22;18622;51.998;10.440;2023-07-13T06:37:44;21.70;89.40
32107;DHT22;18622;51.998;10.440;2023-07-13T06:40:13;21.70;89.30
32107;DHT22;18622;51.998;10.440;2023-07-13T06:42:41;21.80;88.00
32107;DHT22;18622;51.998;10.440;2023-07-13T06:45:09;21.80;87.90
32107;DHT22;18622;51.998;10.440;2023-07-13T06:47:37;21.80;88.30
32107;DHT22;18622;51.998;10.440;2023-07-13T06:50:06;21.80;88.20
32107;DHT22;18622;51.998;10.440;2023-07-13T06:52:33;21.80;87.60
32107;DHT22;18622;51.998;10.440;2023-07-13T06:55:01;21.60;88.10
32107;DHT22;18622;51.998;10.440;2023-07-13T06:57:29;21.60;88.10
32107;DHT22;18622;51.998;10.440;2023-07-13T06:59:57;21.70;88.90
32107;DHT22;18622;51.998;10.440;2023-07-13T07:02:25;21.80;86.90
32107;DHT22;18622;51.998;10.440;2023-07-13T07:04:53;21.80;86.30
32107;DHT22;18622;51.998;10.440;2023-07-13T07:07:23;21.90;86.50
32107;DHT22;18622;51.998;10.440;2023-07-13T07:09:51;22.00;85.30
32107;DHT22;18622;51.998;10.440;2023-07-13T07:12:19;22.10;84.80
32107;DHT22;18622;51.998;10.440;2023-07-13T07:14:47;22.20;84.70
32107;DHT22;18622;51.998;10.440;2023-07-13T07:17:15;22.30;84.60
32107;DHT22;18622;51.998;10.440;2023-07-13T07:19:43;22.40;82.80
32107;DHT22;18622;51.998;10.440;2023-07-13T07:22:11;22.50;82.10
32107;DHT22;18622;51.998;10.440;2023-07-13T07:24:38;22.60;81.00
32107;DHT22;18622;51.998;10.440;2023-07-13T07:27:06;22.60;80.70
32107;DHT22;18622;51.998;10.440;2023-07-13T07:29:34;22.60;79.70
32107;DHT22;18622;51.998;10.440;2023-07-13T07:32:02;22.70;79.50
32107;DHT22;18622;51.998;10.440;2023-07-13T07:34:30;22.70;79.20
32107;DHT22;18622;51.998;10.440;2023-07-13T07:37:00;22.80;79.10
32107;DHT22;18622;51.998;10.440;2023-07-13T07:39:28;23.00;79.30
32107;DHT22;18622;51.998;10.440;2023-07-13T07:41:56;23.20;77.20
32107;DHT22;18622;51.998;10.440;2023-07-13T07:44:24;23.30;76.70
32107;DHT22;18622;51.998;10.440;2023-07-13T07:46:55;23.50;74.80
32107;DHT22;18622;51.998;10.440;2023-07-13T07:49:23;23.60;74.10
32107;DHT22;18622;51.998;10.440;2023-07-13T07:51:51;23.80;73.30
32107;DHT22;18622;51.998;10.440;2023-07-13T07:54:19;23.90;72.30
32107;DHT22;18622;51.998;10.440;2023-07-13T07:56:47;24.00;72.90
32107;DHT22;18622;51.998;10.440;2023-07-13T07:59:15;24.10;71.60
32107;DHT22;18622;51.998;10.440;2023-07-13T08:01:42;24.30;73.00
32107;DHT22;18622;51.998;10.440;2023-07-13T08:04:13;24.50;72.20
32107;DHT22;18622;51.998;10.440;2023-07-13T08:06:40;24.80;70.50
32107;DHT22;18622;51.998;10.440;2023-07-13T08:09:08;24.90;69.40
32107;DHT22;18622;51.998;10.440;2023-07-13T08:11:36;25.20;69.40
32107;DHT22;18622;51.998;10.440;2023-07-13T08:14:04;25.40;68.60
32107;DHT22;18622;51.998;10.440;2023-07-13T08:16:32;25.30;67.10
32107;DHT22;18622;51.998;10.440;2023-07-13T08:19:00;25.30;67.10
32107;DHT22;18622;51.998;10.440;2023-07-13T08:21:27;25.20;66.60
32107;DHT22;18622;51.998;10.440;2023-07-13T08:23:56;25.30;66.40
32107;DHT22;18622;51.998;10.440;2023-07-13T08:26:24;25.30;66.40
32107;DHT22;18622;51.998;10.440;2023-07-13T08:28:51;25.30;65.70
32107;DHT22;18622;51.998;10.440;2023-07-13T08:31:19;25.40;66.50
32107;DHT22;18622;51.998;10.440;2023-07-13T08:33:47;25.60;65.20
32107;DHT22;18622;51.998;10.440;2023-07-13T08:36:15;25.70;64.90
32107;DHT22;18622;51.998;10.440;2023-07-13T08:38:43;25.70;63.20
32107;DHT22;18622;51.998;10.440;2023-07-13T08:41:16;25.80;64.00
32107;DHT22;18622;51.998;10.440;2023-07-13T08:43:50;25.90;63.40
32107;DHT22;18622;51.998;10.440;2023-07-13T08:46:28;26.00;63.50
32107;DHT22;18622;51.998;10.440;2023-07-13T08:49:04;26.00;62.90
32107;DHT22;18622;51.998;10.440;2023-07-13T08:51:45;26.10;62.80
32107;DHT22;18622;51.998;10.440;2023-07-13T08:54:26;26.10;61.80
32107;DHT22;18622;51.998;10.440;2023-07-13T08:56:54;26.00;62.60
32107;DHT22;18622;51.998;10.440;2023-07-13T08:59:28;26.10;62.10
32107;DHT22;18622;51.998;10.440;2023-07-13T09:02:09;26.30;61.10
32107;DHT22;18622;51.998;10.440;2023-07-13T09:04:37;26.40;61.30
32107;DHT22;18622;51.998;10.440;2023-07-13T09:09:58;26.70;59.60
32107;DHT22;18622;51.998;10.440;2023-07-13T09:12:44;26.70;58.70
32107;DHT22;18622;51.998;10.440;2023-07-13T09:14:57;26.60;58.70
32107;DHT22;18622;51.998;10.440;2023-07-13T09:17:39;26.30;58.20
32107;DHT22;18622;51.998;10.440;2023-07-13T09:20:24;26.30;58.90
32107;DHT22;18622;51.998;10.440;2023-07-13T09:22:51;26.40;59.40
32107;DHT22;18622;51.998;10.440;2023-07-13T09:25:29;26.70;58.00
32107;DHT22;18622;51.998;10.440;2023-07-13T09:28:10;26.70;57.20
32107;DHT22;18622;51.998;10.440;2023-07-13T09:30:49;26.70;57.30
32107;DHT22;18622;51.998;10.440;2023-07-13T09:33:16;26.80;57.70
32107;DHT22;18622;51.998;10.440;2023-07-13T09:35:43;27.00;57.20
32107;DHT22;18622;51.998;10.440;2023-07-13T09:38:13;27.20;57.50
32107;DHT22;18622;51.998;10.440;2023-07-13T09:43:14;27.40;57.00
32107;DHT22;18622;51.998;10.440;2023-07-13T09:48:19;28.10;55.00
32107;DHT22;18622;51.998;10.440;2023-07-13T09:50:48;28.10;55.20
32107;DHT22;18622;51.998;10.440;2023-07-13T09:53:18;28.30;55.40
32107;DHT22;18622;51.998;10.440;2023-07-13T09:55:47;28.70;53.70
32107;DHT22;18622;51.998;10.440;2023-07-13T10:00:56;29.90;52.50
32107;DHT22;18622;51.998;10.440;2023-07-13T10:03:32;30.30;51.90
32107;DHT22;18622;51.998;10.440;2023-07-13T10:06:14;30.30;51.30
32107;DHT22;18622;51.998;10.440;2023-07-13T10:08:43;30.30;51.50
32107;DHT22;18622;51.998;10.440;2023-07-13T10:11:30;30.60;51.00
32107;DHT22;18622;51.998;10.440;2023-07-13T10:13:58;30.80;49.50
32107;DHT22;18622;51.998;10.440;2023-07-13T10:16:31;30.70;49.40
32107;DHT22;18622;51.998;10.440;2023-07-13T10:19:10;30.70;50.30
32107;DHT22;18622;51.998;10.440;2023-07-13T10:21:50;31.00;49.60
32107;DHT22;18622;51.998;10.440;2023-07-13T10:24:26;31.40;49.20
32107;DHT22;18622;51.998;10.440;2023-07-13T10:26:58;31.60;49.20
32107;DHT22;18622;51.998;10.440;2023-07-13T10:29:27;31.80;48.40
32107;DHT22;18622;51.998;10.440;2023-07-13T10:31:56;32.10;48.20
32107;DHT22;18622;51.998;10.440;2023-07-13T10:34:24;32.40;47.00
32107;DHT22;18622;51.998;10.440;2023-07-13T10:36:52;32.30;46.30
32107;DHT22;18622;51.998;10.440;2023-07-13T10:39:23;32.00;47.00
32107;DHT22;18622;51.998;10.440;2023-07-13T10:41:58;31.60;47.00
32107;DHT22;18622;51.998;10.440;2023-07-13T10:44:29;31.20;49.20
32107;DHT22;18622;51.998;10.440;2023-07-13T10:47:11;31.60;48.20
32107;DHT22;18622;51.998;10.440;2023-07-13T10:49:37;32.00;46.80
32107;DHT22;18622;51.998;10.440;2023-07-13T10:52:20;32.50;46.70
32107;DHT22;18622;51.998;10.440;2023-07-13T10:54:36;33.00;45.30
32107;DHT22;18622;51.998;10.440;2023-07-13T10:57:18;33.20;45.90
32107;DHT22;18622;51.998;10.440;2023-07-13T11:00:33;33.70;44.70
32107;DHT22;18622;51.998;10.440;2023-07-13T11:02:26;33.90;43.70
32107;DHT22;18622;51.998;10.440;2023-07-13T11:04:56;34.00;44.10
32107;DHT22;18622;51.998;10.440;2023-07-13T11:07:28;34.30;43.50
32107;DHT22;18622;51.998;10.440;2023-07-13T11:09:57;34.30;42.60
32107;DHT22;18622;51.998;10.440;2023-07-13T11:12:28;34.30;42.70
32107;DHT22;18622;51.998;10.440;2023-07-13T11:17:50;33.70;42.00
32107;DHT22;18622;51.998;10.440;2023-07-13T11:20:21;33.10;43.10
32107;DHT22;18622;51.998;10.440;2023-07-13T11:22:53;32.60;42.70
32107;DHT22;18622;51.998;10.440;2023-07-13T11:25:29;32.00;43.80
32107;DHT22;18622;51.998;10.440;2023-07-13T11:36:16;33.10;42.90
32107;DHT22;18622;51.998;10.440;2023-07-13T11:41:42;34.40;40.80
32107;DHT22;18622;51.998;10.440;2023-07-13T11:44:16;34.40;40.80
32107;DHT22;18622;51.998;10.440;2023-07-13T11:46:52;34.40;40.80
32107;DHT22;18622;51.998;10.440;2023-07-13T11:49:22;34.30;41.00
32107;DHT22;18622;51.998;10.440;2023-07-13T11:51:51;34.30;40.60
32107;DHT22;18622;51.998;10.440;2023-07-13T11:54:29;33.70;41.10
32107;DHT22;18622;51.998;10.440;2023-07-13T11:57:03;33.10;42.10
32107;DHT22;18622;51.998;10.440;2023-07-13T11:59:36;33.20;42.20
32107;DHT22;18622;51.998;10.440;2023-07-13T12:02:08;33.90;40.80
32107;DHT22;18622;51.998;10.440;2023-07-13T12:04:33;34.40;40.10
32107;DHT22;18622;51.998;10.440;2023-07-13T12:07:04;34.90;40.00
32107;DHT22;18622;51.998;10.440;2023-07-13T12:09:34;35.10;39.50
32107;DHT22;18622;51.998;10.440;2023-07-13T12:12:03;34.50;39.00
32107;DHT22;18622;51.998;10.440;2023-07-13T12:14:33;33.80;40.90
32107;DHT22;18622;51.998;10.440;2023-07-13T12:17:04;34.00;40.10
32107;DHT22;18622;51.998;10.440;2023-07-13T12:19:30;33.70;39.80
32107;DHT22;18622;51.998;10.440;2023-07-13T12:21:58;33.00;40.50
32107;DHT22;18622;51.998;10.440;2023-07-13T12:24:27;32.20;42.10
32107;DHT22;18622;51.998;10.440;2023-07-13T12:27:03;32.20;42.70
32107;DHT22;18622;51.998;10.440;2023-07-13T12:29:32;32.90;41.50
32107;DHT22;18622;51.998;10.440;2023-07-13T12:32:00;33.70;40.00
32107;DHT22;18622;51.998;10.440;2023-07-13T12:34:28;33.90;40.00
32107;DHT22;18622;51.998;10.440;2023-07-13T12:37:01;34.20;41.80
32107;DHT22;18622;51.998;10.440;2023-07-13T12:39:33;35.00;40.50
32107;DHT22;18622;51.998;10.440;2023-07-13T12:42:24;36.10;38.90
32107;DHT22;18622;51.998;10.440;2023-07-13T12:45:00;36.70;38.00
32107;DHT22;18622;51.998;10.440;2023-07-13T12:47:28;37.30;37.40
32107;DHT22;18622;51.998;10.440;2023-07-13T12:49:58;37.40;36.90
32107;DHT22;18622;51.998;10.440;2023-07-13T12:52:31;37.00;37.70
32107;DHT22;18622;51.998;10.440;2023-07-13T12:55:06;36.30;37.40
32107;DHT22;18622;51.998;10.440;2023-07-13T12:57:41;35.00;38.40
32107;DHT22;18622;51.998;10.440;2023-07-13T13:02:53;33.50;39.80
32107;DHT22;18622;51.998;10.440;2023-07-13T13:05:25;34.20;39.30
32107;DHT22;18622;51.998;10.440;2023-07-13T13:07:52;35.10;39.10
32107;DHT22;18622;51.998;10.440;2023-07-13T13:10:20;35.60;38.00
32107;DHT22;18622;51.998;10.440;2023-07-13T13:12:48;35.10;38.00
32107;DHT22;18622;51.998;10.440;2023-07-13T13:15:16;34.60;38.50
32107;DHT22;18622;51.998;10.440;2023-07-13T13:17:44;34.90;38.50
32107;DHT22;18622;51.998;10.440;2023-07-13T13:20:20;35.10;38.40
32107;DHT22;18622;51.998;10.440;2023-07-13T13:22:48;34.60;38.40
32107;DHT22;18622;51.998;10.440;2023-07-13T13:25:16;33.50;39.30
32107;DHT22;18622;51.998;10.440;2023-07-13T13:27:45;32.50;40.60
32107;DHT22;18622;51.998;10.440;2023-07-13T13:30:16;32.10;41.90
32107;DHT22;18622;51.998;10.440;2023-07-13T13:32:46;32.60;41.20
32107;DHT22;18622;51.998;10.440;2023-07-13T13:35:17;33.40;41.10
32107;DHT22;18622;51.998;10.440;2023-07-13T13:37:46;34.10;39.00
32107;DHT22;18622;51.998;10.440;2023-07-13T13:40:17;34.00;38.90
32107;DHT22;18622;51.998;10.440;2023-07-13T13:42:46;33.70;39.60
32107;DHT22;18622;51.998;10.440;2023-07-13T13:45:14;33.50;39.70
32107;DHT22;18622;51.998;10.440;2023-07-13T13:47:44;33.80;39.90
32107;DHT22;18622;51.998;10.440;2023-07-13T13:50:20;34.30;38.70
32107;DHT22;18622;51.998;10.440;2023-07-13T13:52:43;33.90;38.70
32107;DHT22;18622;51.998;10.440;2023-07-13T13:55:13;33.90;39.10
32107;DHT22;18622;51.998;10.440;2023-07-13T13:57:41;34.30;38.80
32107;DHT22;18622;51.998;10.440;2023-07-13T14:00:10;34.70;39.00
32107;DHT22;18622;51.998;10.440;2023-07-13T14:02:42;35.10;37.60
32107;DHT22;18622;51.998;10.440;2023-07-13T14:05:13;35.30;38.00
32107;DHT22;18622;51.998;10.440;2023-07-13T14:07:42;35.10;38.50
32107;DHT22;18622;51.998;10.440;2023-07-13T14:10:16;34.40;38.70
32107;DHT22;18622;51.998;10.440;2023-07-13T14:12:46;33.80;39.30
32107;DHT22;18622;51.998;10.440;2023-07-13T14:15:29;33.80;40.50
32107;DHT22;18622;51.998;10.440;2023-07-13T14:18:00;34.20;38.90
32107;DHT22;18622;51.998;10.440;2023-07-13T14:20:28;34.20;38.90
32107;DHT22;18622;51.998;10.440;2023-07-13T14:22:56;34.50;39.40
32107;DHT22;18622;51.998;10.440;2023-07-13T14:25:25;34.90;39.30
32107;DHT22;18622;51.998;10.440;2023-07-13T14:27:55;35.20;38.30
32107;DHT22;18622;51.998;10.440;2023-07-13T14:30:25;34.70;38.10
32107;DHT22;18622;51.998;10.440;2023-07-13T14:32:53;34.00;38.80
32107;DHT22;18622;51.998;10.440;2023-07-13T14:35:22;33.30;39.20
32107;DHT22;18622;51.998;10.440;2023-07-13T14:37:49;32.80;40.40
32107;DHT22;18622;51.998;10.440;2023-07-13T14:40:24;32.30;39.80
32107;DHT22;18622;51.998;10.440;2023-07-13T14:42:51;31.90;40.60
32107;DHT22;18622;51.998;10.440;2023-07-13T14:45:19;32.00;41.50
32107;DHT22;18622;51.998;10.440;2023-07-13T14:47:48;32.00;40.50
32107;DHT22;18622;51.998;10.440;2023-07-13T14:50:18;31.80;42.80
32107;DHT22;18622;51.998;10.440;2023-07-13T14:52:47;31.80;42.30
32107;DHT22;18622;51.998;10.440;2023-07-13T14:55:17;31.60;42.10
32107;DHT22;18622;51.998;10.440;2023-07-13T14:57:46;31.40;41.90
32107;DHT22;18622;51.998;10.440;2023-07-13T15:00:19;31.20;41.70
32107;DHT22;18622;51.998;10.440;2023-07-13T15:02:47;30.80;42.10
32107;DHT22;18622;51.998;10.440;2023-07-13T15:05:22;30.50;42.20
32107;DHT22;18622;51.998;10.440;2023-07-13T15:07:46;30.20;42.00
32107;DHT22;18622;51.998;10.440;2023-07-13T15:10:15;30.20;42.80
32107;DHT22;18622;51.998;10.440;2023-07-13T15:12:43;30.80;42.50
32107;DHT22;18622;51.998;10.440;2023-07-13T15:15:12;32.00;41.40
32107;DHT22;18622;51.998;10.440;2023-07-13T15:17:42;32.90;40.50
32107;DHT22;18622;51.998;10.440;2023-07-13T15:20:19;32.90;39.70
32107;DHT22;18622;51.998;10.440;2023-07-13T15:22:48;32.30;40.30
32107;DHT22;18622;51.998;10.440;2023-07-13T15:25:19;31.40;40.30
32107;DHT22;18622;51.998;10.440;2023-07-13T15:27:47;30.60;41.20
32107;DHT22;18622;51.998;10.440;2023-07-13T15:30:15;29.70;45.20
32107;DHT22;18622;51.998;10.440;2023-07-13T15:32:45;29.00;48.20
32107;DHT22;18622;51.998;10.440;2023-07-13T15:35:20;28.50;49.70
32107;DHT22;18622;51.998;10.440;2023-07-13T15:37:44;27.90;50.60
32107;DHT22;18622;51.998;10.440;2023-07-13T15:40:12;27.40;51.90
32107;DHT22;18622;51.998;10.440;2023-07-13T15:42:42;26.90;52.70
32107;DHT22;18622;51.998;10.440;2023-07-13T15:45:15;26.20;53.70
32107;DHT22;18622;51.998;10.440;2023-07-13T15:47:45;25.60;55.40
32107;DHT22;18622;51.998;10.440;2023-07-13T15:50:24;25.00;55.80
32107;DHT22;18622;51.998;10.440;2023-07-13T15:52:47;24.40;57.50
32107;DHT22;18622;51.998;10.440;2023-07-13T15:55:15;23.90;59.10
32107;DHT22;18622;51.998;10.440;2023-07-13T15:57:46;23.50;60.20
32107;DHT22;18622;51.998;10.440;2023-07-13T16:00:27;23.50;62.10
32107;DHT22;18622;51.998;10.440;2023-07-13T16:02:52;24.40;62.40
32107;DHT22;18622;51.998;10.440;2023-07-13T16:05:21;26.30;59.50
32107;DHT22;18622;51.998;10.440;2023-07-13T16:07:51;28.50;56.10
32107;DHT22;18622;51.998;10.440;2023-07-13T16:10:27;30.30;53.30
32107;DHT22;18622;51.998;10.440;2023-07-13T16:12:50;31.70;50.30
32107;DHT22;18622;51.998;10.440;2023-07-13T16:15:20;32.20;48.70
32107;DHT22;18622;51.998;10.440;2023-07-13T16:17:48;31.50;49.30
32107;DHT22;18622;51.998;10.440;2023-07-13T16:20:17;30.30;51.20
32107;DHT22;18622;51.998;10.440;2023-07-13T16:22:49;29.60;52.20
32107;DHT22;18622;51.998;10.440;2023-07-13T16:25:22;29.70;52.60
32107;DHT22;18622;51.998;10.440;2023-07-13T16:27:52;29.30;52.10
32107;DHT22;18622;51.998;10.440;2023-07-13T16:30:24;28.40;53.50
32107;DHT22;18622;51.998;10.440;2023-07-13T16:32:56;27.40;55.30
32107;DHT22;18622;51.998;10.440;2023-07-13T16:35:27;26.70;55.80
32107;DHT22;18622;51.998;10.440;2023-07-13T16:37:56;26.30;56.70
32107;DHT22;18622;51.998;10.440;2023-07-13T16:40:29;26.70;56.30
32107;DHT22;18622;51.998;10.440;2023-07-13T16:42:58;27.10;54.40
32107;DHT22;18622;51.998;10.440;2023-07-13T16:45:28;27.40;53.00
32107;DHT22;18622;51.998;10.440;2023-07-13T16:47:58;27.20;53.00
32107;DHT22;18622;51.998;10.440;2023-07-13T16:50:30;26.90;53.00
32107;DHT22;18622;51.998;10.440;2023-07-13T16:52:57;26.20;53.50
32107;DHT22;18622;51.998;10.440;2023-07-13T16:55:26;25.40;55.20
32107;DHT22;18622;51.998;10.440;2023-07-13T16:57:55;24.60;56.50
32107;DHT22;18622;51.998;10.440;2023-07-13T17:00:27;24.00;57.90
32107;DHT22;18622;51.998;10.440;2023-07-13T17:03:01;23.30;59.30
32107;DHT22;18622;51.998;10.440;2023-07-13T17:05:30;22.90;60.70
32107;DHT22;18622;51.998;10.440;2023-07-13T17:07:59;22.60;61.70
32107;DHT22;18622;51.998;10.440;2023-07-13T17:10:27;22.30;62.60
32107;DHT22;18622;51.998;10.440;2023-07-13T17:12:56;22.20;63.90
32107;DHT22;18622;51.998;10.440;2023-07-13T17:15:33;22.00;63.30
32107;DHT22;18622;51.998;10.440;2023-07-13T17:17:53;21.80;64.10
32107;DHT22;18622;51.998;10.440;2023-07-13T17:20:25;21.60;64.10
32107;DHT22;18622;51.998;10.440;2023-07-13T17:22:54;21.50;64.70
32107;DHT22;18622;51.998;10.440;2023-07-13T17:25:22;21.40;65.10
32107;DHT22;18622;51.998;10.440;2023-07-13T17:27:50;21.20;65.80
32107;DHT22;18622;51.998;10.440;2023-07-13T17:30:21;21.00;66.40
32107;DHT22;18622;51.998;10.440;2023-07-13T17:32:50;20.80;67.10
32107;DHT22;18622;51.998;10.440;2023-07-13T17:35:29;20.70;67.40
32107;DHT22;18622;51.998;10.440;2023-07-13T17:38:00;20.60;68.30
32107;DHT22;18622;51.998;10.440;2023-07-13T17:40:29;20.40;69.70
32107;DHT22;18622;51.998;10.440;2023-07-13T17:42:57;20.30;70.30
32107;DHT22;18622;51.998;10.440;2023-07-13T17:45:27;20.20;71.20
32107;DHT22;18622;51.998;10.440;2023-07-13T17:47:55;20.00;71.10
32107;DHT22;18622;51.998;10.440;2023-07-13T17:50:32;20.00;71.20
32107;DHT22;18622;51.998;10.440;2023-07-13T17:53:17;19.90;71.40
32107;DHT22;18622;51.998;10.440;2023-07-13T17:55:46;19.80;71.60
32107;DHT22;18622;51.998;10.440;2023-07-13T17:58:16;19.80;72.40
32107;DHT22;18622;51.998;10.440;2023-07-13T18:00:46;19.70;72.30
32107;DHT22;18622;51.998;10.440;2023-07-13T18:03:22;19.70;72.50
32107;DHT22;18622;51.998;10.440;2023-07-13T18:05:47;19.60;73.40
32107;DHT22;18622;51.998;10.440;2023-07-13T18:08:25;19.20;75.50
32107;DHT22;18622;51.998;10.440;2023-07-13T18:10:55;18.80;78.20
32107;DHT22;18622;51.998;10.440;2023-07-13T18:13:23;18.40;80.70
32107;DHT22;18622;51.998;10.440;2023-07-13T18:15:52;18.20;81.00
32107;DHT22;18622;51.998;10.440;2023-07-13T18:18:21;17.90;83.90
32107;DHT22;18622;51.998;10.440;2023-07-13T18:20:49;17.70;86.40
32107;DHT22;18622;51.998;10.440;2023-07-13T18:23:20;17.70;88.60
32107;DHT22;18622;51.998;10.440;2023-07-13T18:25:48;17.60;90.30
32107;DHT22;18622;51.998;10.440;2023-07-13T18:28:17;17.50;91.60
32107;DHT22;18622;51.998;10.440;2023-07-13T18:30:48;17.50;92.70
32107;DHT22;18622;51.998;10.440;2023-07-13T18:33:27;17.60;94.10
32107;DHT22;18622;51.998;10.440;2023-07-13T18:35:59;17.60;94.40
32107;DHT22;18622;51.998;10.440;2023-07-13T18:38:28;17.60;94.90
32107;DHT22;18622;51.998;10.440;2023-07-13T18:40:55;17.60;95.30
32107;DHT22;18622;51.998;10.440;2023-07-13T18:43:24;17.70;95.70
32107;DHT22;18622;51.998;10.440;2023-07-13T18:45:54;17.70;95.90
32107;DHT22;18622;51.998;10.440;2023-07-13T18:48:24;17.70;96.10
32107;DHT22;18622;51.998;10.440;2023-07-13T18:50:52;17.70;96.20
32107;DHT22;18622;51.998;10.440;2023-07-13T18:53:20;17.70;96.60
32107;DHT22;18622;51.998;10.440;2023-07-13T18:55:48;17.70;96.80
32107;DHT22;18622;51.998;10.440;2023-07-13T18:58:16;17.70;97.00
32107;DHT22;18622;51.998;10.440;2023-07-13T19:00:47;17.70;97.40
32107;DHT22;18622;51.998;10.440;2023-07-13T19:03:15;17.70;97.60
32107;DHT22;18622;51.998;10.440;2023-07-13T19:05:44;17.80;97.50
32107;DHT22;18622;51.998;10.440;2023-07-13T19:08:22;17.80;97.30
32107;DHT22;18622;51.998;10.440;2023-07-13T19:10:52;17.80;97.20
32107;DHT22;18622;51.998;10.440;2023-07-13T19:13:26;17.80;97.20
32107;DHT22;18622;51.998;10.440;2023-07-13T19:15:58;17.90;97.00
32107;DHT22;18622;51.998;10.440;2023-07-13T19:18:24;17.90;97.10
32107;DHT22;18622;51.998;10.440;2023-07-13T19:20:55;17.90;97.10
32107;DHT22;18622;51.998;10.440;2023-07-13T19:23:39;17.90;97.10
32107;DHT22;18622;51.998;10.440;2023-07-13T19:28:51;17.90;97.00
32107;DHT22;18622;51.998;10.440;2023-07-13T19:31:28;17.90;96.90
32107;DHT22;18622;51.998;10.440;2023-07-13T19:33:59;17.90;96.90
32107;DHT22;18622;51.998;10.440;2023-07-13T19:36:27;18.00;96.70